Time;durP1;ratioP1;P1;durP2;ratioP2;P2;SDS_P1;SDS_P2;PMS_P1;PMS_P2;Temp;Humidity;BMP_temperature;BMP_pressure;BME280_temperature;BME280_humidity;BME280_pressure;Samples;Min_cycle;Max_cycle;Signal;HPM_P1;HPM_P2
2021/10/30 00:00:51;;;;;;;21.20;13.48;;;4.30;99.90;;;;;;5035231;28;20380;-69
2021/10/30 00:03:17;;;;;;;19.58;13.23;;;4.40;99.90;;;;;;5035098;28;20033;-70
2021/10/30 00:05:45;;;;;;;21.08;12.70;;;4.40;99.90;;;;;;5033850;28;20021;-69
2021/10/30 00:08:11;;;;;;;20.63;13.55;;;4.40;99.90;;;;;;5034829;28;20044;-69
2021/10/30 00:10:37;;;;;;;17.60;12.13;;;4.40;99.90;;;;;;5035074;28;20029;-69
2021/10/30 00:13:03;;;;;;;19.83;11.88;;;4.30;99.90;;;;;;5034612;28;20290;-69
2021/10/30 00:15:28;;;;;;;20.58;12.98;;;4.30;99.90;;;;;;5034250;28;20364;-69
2021/10/30 00:17:54;;;;;;;18.83;12.95;;;4.30;99.90;;;;;;5034694;28;20037;-68
2021/10/30 00:20:20;;;;;;;21.60;13.43;;;4.30;99.90;;;;;;5034415;28;20049;-69
2021/10/30 00:22:45;;;;;;;23.85;14.10;;;4.30;99.90;;;;;;5034534;28;20131;-69
2021/10/30 00:25:11;;;;;;;21.75;13.13;;;4.20;99.90;;;;;;5033819;28;20029;-68
2021/10/30 00:27:37;;;;;;;21.08;13.18;;;4.20;99.90;;;;;;5034575;28;20051;-69
2021/10/30 00:30:04;;;;;;;20.80;12.57;;;4.10;99.90;;;;;;5034199;28;20356;-68
2021/10/30 00:32:29;;;;;;;20.95;13.00;;;4.10;99.90;;;;;;5034610;28;20407;-69
2021/10/30 00:34:55;;;;;;;20.65;11.85;;;4.20;99.90;;;;;;5033845;28;20083;-69
2021/10/30 00:37:20;;;;;;;17.77;12.20;;;4.10;99.90;;;;;;5035427;28;20033;-67
2021/10/30 00:39:46;;;;;;;24.95;14.48;;;4.10;99.90;;;;;;5035046;28;20032;-68
2021/10/30 00:42:12;;;;;;;22.23;13.15;;;4.10;99.90;;;;;;5034548;28;20491;-68
2021/10/30 00:44:38;;;;;;;21.15;13.55;;;4.10;99.90;;;;;;5035698;28;20038;-69
2021/10/30 00:47:04;;;;;;;24.48;14.35;;;4.00;99.90;;;;;;5018195;28;20040;-68
2021/10/30 00:49:32;;;;;;;19.90;13.18;;;4.00;99.90;;;;;;5034908;28;20020;-68
2021/10/30 00:51:57;;;;;;;20.55;13.27;;;4.00;99.90;;;;;;5035270;28;20026;-68
2021/10/30 00:54:25;;;;;;;23.48;13.05;;;4.00;99.90;;;;;;5033994;28;20484;-68
2021/10/30 00:56:53;;;;;;;21.95;12.95;;;4.00;99.90;;;;;;5034711;28;20036;-68
2021/10/30 00:59:20;;;;;;;24.05;13.30;;;3.90;99.90;;;;;;5034155;28;20187;-68
2021/10/30 01:01:48;;;;;;;20.70;13.77;;;3.90;99.90;;;;;;5033736;28;20029;-68
2021/10/30 01:04:16;;;;;;;25.75;14.68;;;3.80;99.90;;;;;;5033744;28;20033;-68
2021/10/30 01:06:47;;;;;;;26.27;13.75;;;3.90;99.90;;;;;;5034438;28;20048;-69
2021/10/30 01:09:14;;;;;;;18.80;12.80;;;3.80;99.90;;;;;;5035660;28;20097;-69
2021/10/30 01:11:41;;;;;;;20.65;13.75;;;3.70;99.90;;;;;;5033907;28;20263;-69
2021/10/30 01:14:08;;;;;;;22.27;13.00;;;3.80;99.90;;;;;;5034085;28;20464;-69
2021/10/30 01:16:34;;;;;;;24.30;13.20;;;3.80;99.90;;;;;;5033048;28;20033;-68
2021/10/30 01:19:00;;;;;;;20.60;13.10;;;3.90;99.90;;;;;;5033790;28;20022;-68
2021/10/30 01:21:25;;;;;;;24.10;13.95;;;3.80;99.90;;;;;;5033941;28;20048;-69
2021/10/30 01:23:51;;;;;;;17.35;13.10;;;3.70;99.90;;;;;;5033714;28;20523;-68
2021/10/30 01:26:20;;;;;;;21.35;12.73;;;3.70;99.90;;;;;;5032934;28;20364;-68
2021/10/30 01:28:45;;;;;;;22.02;13.90;;;3.60;99.90;;;;;;5033403;28;20079;-69
2021/10/30 01:31:11;;;;;;;19.48;12.23;;;3.70;99.90;;;;;;5033487;28;20033;-68
2021/10/30 01:33:37;;;;;;;17.98;13.35;;;3.70;99.90;;;;;;5033646;28;20072;-69
2021/10/30 01:36:07;;;;;;;20.23;13.50;;;3.70;99.90;;;;;;5032809;28;20463;-68
2021/10/30 01:38:33;;;;;;;19.83;13.40;;;3.70;99.90;;;;;;5033464;28;20383;-68
2021/10/30 01:40:58;;;;;;;21.88;14.45;;;3.60;99.90;;;;;;5033078;28;20029;-68
2021/10/30 01:43:24;;;;;;;24.08;14.05;;;3.60;99.90;;;;;;5033141;28;20021;-68
2021/10/30 01:45:50;;;;;;;25.27;15.25;;;3.60;99.90;;;;;;5032634;28;20411;-69
2021/10/30 01:48:16;;;;;;;23.92;14.82;;;3.50;99.90;;;;;;5033021;28;20018;-69
2021/10/30 01:50:42;;;;;;;21.20;14.73;;;3.60;99.90;;;;;;5033108;28;20018;-69
2021/10/30 01:53:09;;;;;;;24.73;14.52;;;3.50;99.90;;;;;;5032866;28;20109;-68
2021/10/30 01:55:39;;;;;;;21.98;13.43;;;3.50;99.90;;;;;;5032503;28;20116;-69
2021/10/30 01:58:06;;;;;;;23.05;14.85;;;3.70;99.90;;;;;;5033079;28;20469;-68
2021/10/30 02:00:32;;;;;;;21.30;12.52;;;3.50;99.90;;;;;;5032950;28;20198;-69
2021/10/30 02:02:58;;;;;;;21.83;14.13;;;3.60;99.90;;;;;;5032701;28;20064;-68
2021/10/30 02:05:24;;;;;;;21.77;13.63;;;3.40;99.90;;;;;;5032308;28;20525;-69
2021/10/30 02:07:50;;;;;;;19.67;13.20;;;3.40;99.90;;;;;;5032926;28;20025;-67
2021/10/30 02:10:16;;;;;;;24.55;13.93;;;3.50;99.90;;;;;;5032993;28;20147;-68
2021/10/30 02:12:43;;;;;;;20.58;14.32;;;3.30;99.90;;;;;;5032182;28;20376;-68
2021/10/30 02:15:09;;;;;;;25.33;15.38;;;3.30;99.90;;;;;;5014168;28;20036;-68
2021/10/30 02:17:36;;;;;;;23.65;15.48;;;3.30;99.90;;;;;;5032448;28;20025;-68
2021/10/30 02:20:04;;;;;;;20.33;14.32;;;3.40;99.90;;;;;;5032273;28;20498;-68
2021/10/30 02:22:30;;;;;;;19.17;13.73;;;3.30;99.90;;;;;;5031407;28;20059;-69
2021/10/30 02:24:55;;;;;;;26.48;13.98;;;3.20;99.90;;;;;;5031385;28;20483;-68
2021/10/30 02:27:21;;;;;;;21.70;13.88;;;3.20;99.90;;;;;;5032187;28;20428;-68
2021/10/30 02:29:47;;;;;;;22.88;13.73;;;3.20;99.90;;;;;;5032590;28;20029;-68
2021/10/30 02:32:13;;;;;;;22.40;15.07;;;3.20;99.90;;;;;;5032027;28;20026;-68
2021/10/30 02:34:39;;;;;;;20.10;13.05;;;3.20;99.90;;;;;;5031561;28;20031;-69
2021/10/30 02:37:05;;;;;;;22.73;13.65;;;3.20;99.90;;;;;;5031522;28;20034;-68
2021/10/30 02:39:31;;;;;;;21.90;13.63;;;3.30;99.90;;;;;;5032198;28;20028;-69
2021/10/30 02:41:57;;;;;;;22.02;13.43;;;3.30;99.90;;;;;;5031688;28;20044;-68
2021/10/30 02:44:22;;;;;;;22.38;13.48;;;3.20;99.90;;;;;;5031312;28;20030;-69
2021/10/30 02:46:48;;;;;;;21.42;13.20;;;3.20;99.90;;;;;;5031824;28;20078;-68
2021/10/30 02:49:14;;;;;;;21.73;14.52;;;3.50;99.90;;;;;;5032030;28;20072;-68
2021/10/30 02:51:39;;;;;;;23.77;14.95;;;3.30;99.90;;;;;;5032093;28;20041;-69
2021/10/30 02:54:05;;;;;;;27.77;15.38;;;3.30;99.90;;;;;;5032021;28;20498;-69
2021/10/30 02:56:30;;;;;;;25.00;14.85;;;3.30;99.90;;;;;;5030951;28;20033;-68
2021/10/30 02:58:56;;;;;;;30.08;16.83;;;3.30;99.90;;;;;;5031573;28;20029;-69
2021/10/30 03:01:22;;;;;;;24.20;15.02;;;3.30;99.90;;;;;;5031726;28;20412;-68
2021/10/30 03:03:47;;;;;;;23.80;14.77;;;3.20;99.90;;;;;;5031823;28;20017;-69
2021/10/30 03:06:15;;;;;;;29.77;15.27;;;3.20;99.90;;;;;;5030107;28;20488;-69
2021/10/30 03:08:41;;;;;;;21.65;14.48;;;3.20;99.90;;;;;;5031623;28;20033;-69
2021/10/30 03:11:06;;;;;;;20.70;13.77;;;3.20;99.90;;;;;;5038406;28;20033;-68
2021/10/30 03:13:32;;;;;;;23.45;13.85;;;3.20;99.90;;;;;;5031777;28;20128;-69
2021/10/30 03:15:58;;;;;;;25.80;14.52;;;3.10;99.90;;;;;;5031028;28;20025;-68
2021/10/30 03:18:24;;;;;;;23.95;14.52;;;3.10;99.90;;;;;;5031625;28;20475;-69
2021/10/30 03:20:50;;;;;;;28.70;15.18;;;3.30;99.90;;;;;;5030550;28;20067;-67
2021/10/30 03:23:15;;;;;;;23.85;15.23;;;3.00;99.90;;;;;;5031414;28;20021;-68
2021/10/30 03:25:42;;;;;;;27.63;14.60;;;3.00;99.90;;;;;;5030704;28;20029;-68
2021/10/30 03:28:08;;;;;;;25.67;14.98;;;3.00;99.90;;;;;;5031698;28;20045;-69
2021/10/30 03:30:33;;;;;;;22.95;14.90;;;3.00;99.90;;;;;;5031423;28;20476;-69
2021/10/30 03:32:59;;;;;;;21.90;13.40;;;3.00;99.90;;;;;;5031499;28;20032;-69
2021/10/30 03:35:25;;;;;;;26.13;14.82;;;3.00;99.90;;;;;;5030793;28;20391;-69
2021/10/30 03:37:51;;;;;;;23.10;15.00;;;3.10;99.90;;;;;;5031248;28;20047;-68
2021/10/30 03:40:16;;;;;;;21.13;13.55;;;3.10;99.90;;;;;;5031012;28;20104;-69
2021/10/30 03:42:42;;;;;;;23.80;13.13;;;3.10;99.90;;;;;;5063356;22;20040;-71
2021/10/30 03:45:08;;;;;;;22.63;14.20;;;3.20;99.90;;;;;;5036061;28;20063;-71
2021/10/30 03:47:34;;;;;;;19.13;13.20;;;3.20;99.90;;;;;;5031329;28;20100;-72
2021/10/30 03:50:00;;;;;;;18.83;12.60;;;3.10;99.90;;;;;;5031430;28;20145;-72
2021/10/30 03:52:26;;;;;;;24.05;13.07;;;3.20;99.90;;;;;;5031395;28;20036;-71
2021/10/30 03:54:53;;;;;;;16.42;11.75;;;3.10;99.90;;;;;;5030398;28;20032;-71
2021/10/30 03:57:19;;;;;;;23.65;14.57;;;3.00;99.90;;;;;;5031016;28;20021;-71
2021/10/30 03:59:45;;;;;;;30.67;14.90;;;3.00;99.90;;;;;;5031239;28;20025;-71
2021/10/30 04:02:11;;;;;;;30.73;15.77;;;3.00;99.90;;;;;;5031283;28;20395;-71
2021/10/30 04:04:36;;;;;;;21.88;14.70;;;3.00;99.90;;;;;;5030408;28;20037;-71
2021/10/30 04:07:03;;;;;;;22.15;14.55;;;3.00;99.90;;;;;;5031233;28;20137;-72
2021/10/30 04:09:29;;;;;;;26.83;14.75;;;3.00;99.90;;;;;;5031110;28;20021;-71
2021/10/30 04:11:54;;;;;;;28.63;16.67;;;3.00;99.90;;;;;;5031828;28;20071;-71
2021/10/30 04:14:20;;;;;;;28.10;16.75;;;3.00;99.90;;;;;;5050557;28;20036;-71
2021/10/30 04:16:47;;;;;;;27.20;15.45;;;3.10;99.90;;;;;;5052266;28;20091;-71
2021/10/30 04:19:13;;;;;;;25.75;14.98;;;3.00;99.90;;;;;;5054726;28;20025;-70
2021/10/30 04:21:40;;;;;;;24.83;14.35;;;2.80;99.90;;;;;;5054858;28;20478;-70
2021/10/30 04:24:06;;;;;;;24.55;15.65;;;2.90;99.90;;;;;;5054856;28;20126;-69
2021/10/30 04:26:32;;;;;;;24.42;14.60;;;2.80;99.90;;;;;;5053895;28;20096;-70
2021/10/30 04:28:59;;;;;;;25.42;14.90;;;2.80;99.90;;;;;;5054631;28;20102;-69
2021/10/30 04:31:27;;;;;;;18.90;12.95;;;2.80;99.90;;;;;;5054602;28;20040;-74
2021/10/30 04:33:57;;;;;;;21.17;13.73;;;2.80;99.90;;;;;;5054780;28;20027;-71
2021/10/30 04:36:25;;;;;;;23.65;14.15;;;2.80;99.90;;;;;;5053921;28;20041;-71
2021/10/30 04:38:51;;;;;;;22.23;13.80;;;2.80;99.90;;;;;;5054289;28;20098;-72
2021/10/30 04:41:18;;;;;;;24.05;13.95;;;2.80;99.90;;;;;;5054099;28;20036;-73
2021/10/30 04:43:45;;;;;;;20.08;13.77;;;2.90;99.90;;;;;;5070406;28;20070;-71
2021/10/30 04:46:16;;;;;;;24.77;15.23;;;2.80;99.90;;;;;;5073616;28;20447;-70
2021/10/30 04:48:43;;;;;;;24.67;14.93;;;2.70;99.90;;;;;;5074250;28;20023;-71
2021/10/30 04:51:10;;;;;;;25.75;14.13;;;2.70;99.90;;;;;;5073949;28;20691;-71
2021/10/30 04:53:40;;;;;;;26.13;15.70;;;2.60;99.90;;;;;;5054878;28;20035;-71
2021/10/30 04:56:06;;;;;;;26.02;15.57;;;2.70;99.90;;;;;;5073327;28;20020;-72
2021/10/30 04:58:33;;;;;;;23.80;15.45;;;2.80;99.90;;;;;;5073691;28;20025;-72
2021/10/30 05:01:00;;;;;;;28.15;16.20;;;2.50;99.90;;;;;;5073957;28;20035;-71
2021/10/30 05:03:26;;;;;;;26.55;15.40;;;2.40;99.90;;;;;;5074066;28;20082;-71
2021/10/30 05:05:52;;;;;;;31.80;15.65;;;2.30;99.90;;;;;;5073336;28;20032;-70
2021/10/30 05:08:18;;;;;;;26.38;16.90;;;2.30;99.90;;;;;;5074497;28;20077;-71
2021/10/30 05:10:43;;;;;;;32.08;16.35;;;2.20;99.90;;;;;;5073936;28;20432;-70
2021/10/30 05:13:09;;;;;;;50.60;16.90;;;2.10;99.90;;;;;;5073327;28;20551;-70
2021/10/30 05:15:35;;;;;;;25.67;15.40;;;2.20;99.90;;;;;;5073465;28;20047;-71
2021/10/30 05:18:00;;;;;;;36.72;17.55;;;2.10;99.90;;;;;;5073955;28;20021;-71
2021/10/30 05:20:27;;;;;;;28.15;16.33;;;2.00;99.90;;;;;;5073222;28;20028;-72
2021/10/30 05:22:54;;;;;;;31.63;17.05;;;2.00;99.90;;;;;;5073488;28;20064;-70
2021/10/30 05:25:19;;;;;;;31.20;16.88;;;2.10;99.90;;;;;;5073109;28;20394;-70
2021/10/30 05:27:45;;;;;;;33.13;17.40;;;2.00;99.90;;;;;;5073406;28;20028;-71
2021/10/30 05:30:11;;;;;;;30.38;16.77;;;2.20;99.90;;;;;;5047294;28;20014;-77
2021/10/30 05:32:36;;;;;;;28.42;16.13;;;2.00;99.90;;;;;;5050877;28;20028;-76
2021/10/30 05:35:03;;;;;;;27.20;17.15;;;2.10;99.90;;;;;;5038550;28;20753;-76
2021/10/30 05:37:29;;;;;;;28.05;16.73;;;2.00;99.90;;;;;;5014860;28;20029;-77
2021/10/30 05:39:54;;;;;;;29.05;17.48;;;2.10;99.90;;;;;;5033280;28;20092;-77
2021/10/30 05:42:20;;;;;;;25.73;15.93;;;2.10;99.90;;;;;;5032406;28;20044;-77
2021/10/30 05:44:46;;;;;;;28.60;16.13;;;2.10;99.90;;;;;;5032640;28;20072;-77
2021/10/30 05:47:13;;;;;;;25.48;15.32;;;2.10;99.90;;;;;;5033398;28;20026;-76
2021/10/30 05:49:41;;;;;;;24.20;15.43;;;2.20;99.90;;;;;;5049396;28;20013;-75
2021/10/30 05:52:08;;;;;;;25.83;15.77;;;2.10;99.90;;;;;;5047710;28;20025;-76
2021/10/30 05:54:34;;;;;;;25.23;15.43;;;2.20;99.90;;;;;;5071953;28;20040;-77
2021/10/30 05:57:00;;;;;;;21.60;14.98;;;2.20;99.90;;;;;;5054612;28;20115;-77
2021/10/30 05:59:30;;;;;;;22.13;15.07;;;2.30;99.90;;;;;;5072684;28;20103;-77
2021/10/30 06:01:55;;;;;;;29.55;15.50;;;2.30;99.90;;;;;;5054152;28;20078;-77
2021/10/30 06:04:21;;;;;;;36.90;20.33;;;2.30;99.90;;;;;;5071894;28;20029;-77
2021/10/30 06:06:47;;;;;;;39.70;21.38;;;2.40;99.90;;;;;;5072611;28;20025;-77
2021/10/30 06:09:13;;;;;;;33.20;16.55;;;2.30;99.90;;;;;;5072699;28;20033;-75
2021/10/30 06:11:40;;;;;;;29.35;17.52;;;2.40;99.90;;;;;;5071873;28;20021;-74
2021/10/30 06:14:07;;;;;;;30.38;17.10;;;2.30;99.90;;;;;;5072550;28;20028;-77
2021/10/30 06:16:33;;;;;;;27.45;16.27;;;2.30;99.90;;;;;;5071351;28;20101;-75
2021/10/30 06:18:59;;;;;;;28.08;16.00;;;2.20;99.90;;;;;;5072283;28;20017;-75
2021/10/30 06:21:27;;;;;;;28.83;17.70;;;2.40;99.90;;;;;;5071710;28;20044;-76
2021/10/30 06:23:53;;;;;;;32.25;16.80;;;2.40;99.90;;;;;;5072236;28;20013;-77
2021/10/30 06:26:20;;;;;;;23.50;15.75;;;2.30;99.90;;;;;;5053399;28;20047;-75
2021/10/30 06:28:47;;;;;;;27.05;15.90;;;2.30;99.90;;;;;;5052221;28;20486;-75
2021/10/30 06:31:14;;;;;;;29.55;16.13;;;2.30;99.90;;;;;;5062264;28;20077;-76
2021/10/30 06:33:41;;;;;;;24.10;15.25;;;2.30;99.90;;;;;;5073634;28;20016;-75
2021/10/30 06:36:07;;;;;;;22.20;14.75;;;2.40;99.90;;;;;;5057076;28;20028;-75
2021/10/30 06:38:33;;;;;;;29.52;15.68;;;2.50;99.90;;;;;;5051815;28;20025;-76
2021/10/30 06:41:01;;;;;;;25.38;14.02;;;2.50;99.90;;;;;;5051541;28;20506;-75
2021/10/30 06:43:30;;;;;;;29.90;18.73;;;2.50;99.90;;;;;;5050734;28;20029;-76
2021/10/30 06:45:56;;;;;;;46.25;29.50;;;2.50;99.90;;;;;;5050256;28;20025;-76
2021/10/30 06:48:22;;;;;;;35.97;22.13;;;2.70;99.90;;;;;;5051099;28;20086;-76
2021/10/30 06:50:48;;;;;;;29.92;17.58;;;2.70;99.90;;;;;;5047274;28;20021;-75
2021/10/30 06:53:14;;;;;;;23.85;14.95;;;2.70;99.90;;;;;;5050822;28;20458;-75
2021/10/30 06:55:41;;;;;;;25.10;15.63;;;2.80;99.90;;;;;;5050087;28;20099;-75
2021/10/30 06:58:07;;;;;;;26.17;15.00;;;2.80;99.90;;;;;;5034987;28;20080;-75
2021/10/30 07:00:33;;;;;;;22.35;15.27;;;3.00;99.90;;;;;;5030661;28;20041;-75
2021/10/30 07:02:59;;;;;;;21.77;13.93;;;3.10;99.90;;;;;;5012455;28;20034;-76
2021/10/30 07:05:25;;;;;;;21.20;13.40;;;3.20;99.90;;;;;;5030115;28;20029;-75
2021/10/30 07:07:51;;;;;;;19.98;14.38;;;3.40;99.90;;;;;;5013267;28;20083;-75
2021/10/30 07:10:17;;;;;;;22.55;13.50;;;3.40;99.90;;;;;;5031300;28;20025;-75
2021/10/30 07:12:43;;;;;;;20.30;13.43;;;3.60;99.90;;;;;;5012148;28;20099;-74
2021/10/30 07:15:11;;;;;;;23.10;15.80;;;3.80;99.90;;;;;;5030190;28;20456;-75
2021/10/30 07:17:37;;;;;;;22.23;14.48;;;4.00;99.90;;;;;;5030976;28;20028;-78
2021/10/30 07:20:03;;;;;;;18.42;13.10;;;4.20;99.90;;;;;;5031149;28;20025;-79
2021/10/30 07:22:29;;;;;;;17.80;12.43;;;4.30;99.90;;;;;;5063235;28;20048;-78
2021/10/30 07:24:55;;;;;;;17.60;12.30;;;4.30;99.90;;;;;;5042454;28;20029;-78
2021/10/30 07:27:21;;;;;;;17.08;12.48;;;4.50;99.90;;;;;;5050439;28;20018;-75
2021/10/30 07:29:48;;;;;;;17.48;11.18;;;4.40;99.90;;;;;;5050586;28;20032;-76
2021/10/30 07:32:19;;;;;;;17.67;11.10;;;4.20;99.90;;;;;;5031974;28;20382;-76
2021/10/30 07:34:44;;;;;;;15.80;11.10;;;4.10;99.90;;;;;;5049405;28;20033;-76
2021/10/30 07:37:10;;;;;;;14.90;10.57;;;4.00;99.90;;;;;;5050362;28;20025;-75
2021/10/30 07:39:36;;;;;;;14.25;9.98;;;4.00;99.90;;;;;;5050283;28;20112;-75
2021/10/30 07:42:03;;;;;;;13.90;10.57;;;3.90;99.90;;;;;;5011439;28;1107402;-75
2021/10/30 07:44:28;;;;;;;12.38;10.10;;;4.10;99.90;;;;;;5050309;28;20122;-76
2021/10/30 07:46:54;;;;;;;12.27;9.52;;;4.20;99.90;;;;;;5050945;28;20025;-76
2021/10/30 07:49:21;;;;;;;13.48;9.63;;;4.40;99.90;;;;;;5051275;28;20025;-76
2021/10/30 07:51:46;;;;;;;12.18;9.15;;;4.30;99.90;;;;;;5051469;28;20086;-71
2021/10/30 07:54:12;;;;;;;17.20;10.45;;;4.40;99.90;;;;;;5054717;28;20054;-76
2021/10/30 07:56:37;;;;;;;12.95;9.85;;;4.50;99.90;;;;;;5054161;28;20094;-75
2021/10/30 07:59:03;;;;;;;13.70;9.07;;;4.80;99.90;;;;;;5054725;28;20021;-76
2021/10/30 08:01:29;;;;;;;10.32;8.90;;;5.30;99.90;;;;;;5067473;28;20020;-76
2021/10/30 08:03:54;;;;;;;13.15;10.23;;;5.30;99.90;;;;;;5072749;28;20033;-76
2021/10/30 08:06:20;;;;;;;11.23;9.82;;;6.00;99.90;;;;;;5060076;28;20025;-78
2021/10/30 08:08:46;;;;;;;10.70;8.50;;;6.30;99.90;;;;;;5056326;28;20029;-73
2021/10/30 08:11:11;;;;;;;11.85;8.88;;;6.80;99.90;;;;;;5054417;28;20028;-75
2021/10/30 08:13:37;;;;;;;15.73;9.85;;;7.10;99.90;;;;;;5036281;28;20075;-75
2021/10/30 08:16:03;;;;;;;10.65;8.85;;;7.10;99.90;;;;;;5053973;28;20040;-75
2021/10/30 08:18:29;;;;;;;15.27;10.27;;;6.80;99.90;;;;;;5054139;28;20032;-71
2021/10/30 08:20:54;;;;;;;14.32;9.90;;;6.80;99.90;;;;;;5057600;28;20024;-71
2021/10/30 08:23:20;;;;;;;11.35;9.20;;;6.40;99.90;;;;;;5074210;28;20028;-72
2021/10/30 08:25:46;;;;;;;11.38;9.95;;;6.10;99.90;;;;;;5041676;28;20047;-70
2021/10/30 08:28:11;;;;;;;13.57;9.68;;;6.10;99.90;;;;;;5054005;28;20033;-70
2021/10/30 08:30:37;;;;;;;15.02;9.75;;;6.00;99.90;;;;;;5054239;28;20017;-70
2021/10/30 08:33:03;;;;;;;12.23;10.38;;;5.90;99.90;;;;;;5053878;28;20753;-70
2021/10/30 08:35:29;;;;;;;16.25;11.43;;;5.80;99.90;;;;;;5053367;28;20031;-71
2021/10/30 08:37:54;;;;;;;16.73;10.95;;;6.00;99.90;;;;;;5054085;28;20112;-70
2021/10/30 08:40:20;;;;;;;14.55;10.15;;;6.00;99.90;;;;;;5053925;28;20506;-70
2021/10/30 08:42:48;;;;;;;13.93;9.93;;;5.90;99.90;;;;;;5053444;28;20532;-70
2021/10/30 08:45:14;;;;;;;12.68;9.75;;;6.10;99.90;;;;;;5053124;28;20090;-71
2021/10/30 08:47:42;;;;;;;12.30;9.55;;;6.30;99.90;;;;;;5053922;28;20121;-70
2021/10/30 08:50:08;;;;;;;13.02;9.65;;;6.80;99.90;;;;;;5053872;28;20447;-72
2021/10/30 08:52:35;;;;;;;17.98;10.30;;;7.00;99.90;;;;;;5070744;28;20025;-71
2021/10/30 08:55:06;;;;;;;12.02;9.52;;;7.00;99.90;;;;;;5072675;28;20093;-73
2021/10/30 08:57:32;;;;;;;16.50;10.40;;;6.80;99.90;;;;;;5073603;28;20483;-66
2021/10/30 09:00:20;;;;;;;40.28;21.40;;;6.70;99.90;;;;;;5073632;28;20024;-69
2021/10/30 09:02:53;;;;;;;20.40;12.20;;;6.50;99.90;;;;;;5072405;28;20082;-71
2021/10/30 09:05:22;;;;;;;20.10;12.57;;;6.40;99.90;;;;;;5072202;28;20090;-69
2021/10/30 09:07:58;;;;;;;13.93;10.75;;;6.20;99.90;;;;;;5073509;28;20047;-68
2021/10/30 09:10:35;;;;;;;20.83;12.68;;;6.00;99.90;;;;;;5073610;28;20040;-66
2021/10/30 09:13:05;;;;;;;18.75;10.85;;;6.10;99.90;;;;;;5063409;28;20029;-68
2021/10/30 09:15:38;;;;;;;13.80;10.27;;;6.20;99.90;;;;;;5032729;28;20033;-68
2021/10/30 09:18:33;;;;;;;17.33;9.68;;;6.20;99.90;;;;;;5033636;28;20053;-69
2021/10/30 09:21:05;;;;;;;21.92;13.32;;;6.20;99.90;;;;;;5041443;28;20025;-68
2021/10/30 09:23:32;;;;;;;13.93;10.75;;;6.20;99.90;;;;;;5073322;28;20028;-68
2021/10/30 09:26:02;;;;;;;12.70;10.25;;;6.30;99.90;;;;;;5056839;28;20055;-67
2021/10/30 09:28:30;;;;;;;18.50;11.40;;;6.30;99.90;;;;;;5053012;28;20053;-68
2021/10/30 09:31:03;;;;;;;17.17;10.35;;;6.40;99.90;;;;;;5052884;28;20021;-67
2021/10/30 09:33:31;;;;;;;16.95;11.05;;;6.30;99.90;;;;;;5053054;28;20116;-69
2021/10/30 09:36:11;;;;;;;16.33;11.27;;;6.40;99.90;;;;;;5052054;28;20400;-69
2021/10/30 09:38:53;;;;;;;17.23;11.43;;;6.40;99.90;;;;;;5052731;28;20064;-70
2021/10/30 09:41:30;;;;;;;15.65;11.30;;;6.30;99.90;;;;;;5037850;28;20912;-68
2021/10/30 09:44:05;;;;;;;18.98;11.77;;;6.30;99.90;;;;;;5032593;28;20036;-68
2021/10/30 09:46:53;;;;;;;15.40;12.00;;;6.40;99.90;;;;;;5032069;28;20028;-68
2021/10/30 09:49:29;;;;;;;16.60;10.98;;;6.40;99.90;;;;;;5032670;28;20077;-66
2021/10/30 09:52:08;;;;;;;18.13;11.32;;;6.60;99.90;;;;;;5038531;28;20383;-68
2021/10/30 09:54:38;;;;;;;16.85;10.57;;;6.60;99.90;;;;;;5077190;28;20100;-68
2021/10/30 09:57:10;;;;;;;17.83;11.65;;;6.60;99.90;;;;;;5055302;28;20028;-69
2021/10/30 09:59:39;;;;;;;26.35;15.45;;;6.70;99.90;;;;;;5079994;23;20133;-65
2021/10/30 10:02:06;;;;;;;20.08;12.85;;;6.70;99.90;;;;;;5040582;28;20026;-66
2021/10/30 10:04:36;;;;;;;17.05;12.77;;;6.80;99.90;;;;;;5032263;28;20084;-65
2021/10/30 10:07:04;;;;;;;17.67;12.48;;;6.70;99.90;;;;;;5035021;28;20402;-64
2021/10/30 10:09:30;;;;;;;16.00;12.45;;;6.70;99.90;;;;;;5034623;28;20580;-66
2021/10/30 10:11:56;;;;;;;17.80;11.68;;;6.80;99.90;;;;;;5034261;28;20024;-65
2021/10/30 10:14:22;;;;;;;16.75;11.82;;;6.80;99.90;;;;;;5033768;28;20380;-65
2021/10/30 10:16:52;;;;;;;17.70;12.05;;;6.80;99.90;;;;;;5034350;28;20383;-65
2021/10/30 10:19:19;;;;;;;13.73;10.57;;;6.90;99.90;;;;;;5033979;28;20018;-65
2021/10/30 10:21:45;;;;;;;16.92;12.25;;;7.00;99.90;;;;;;5053839;28;20029;-66
2021/10/30 10:24:13;;;;;;;16.33;12.43;;;7.00;99.90;;;;;;5071966;28;20035;-67
2021/10/30 10:26:59;;;;;;;15.15;11.43;;;7.10;99.90;;;;;;5051689;28;20078;-65
2021/10/30 10:29:41;;;;;;;18.10;12.07;;;7.20;99.90;;;;;;5052338;28;20017;-65
2021/10/30 10:32:24;;;;;;;19.23;11.65;;;7.30;99.90;;;;;;5052285;28;20041;-64
2021/10/30 10:34:51;;;;;;;15.38;11.30;;;7.20;99.90;;;;;;5051193;28;20021;-64
2021/10/30 10:37:23;;;;;;;21.10;12.13;;;7.40;99.90;;;;;;5052294;28;20029;-64
2021/10/30 10:39:53;;;;;;;17.88;11.85;;;7.40;99.90;;;;;;5051773;28;20047;-65
2021/10/30 10:42:33;;;;;;;20.83;12.60;;;7.40;99.90;;;;;;5033949;28;20112;-65
2021/10/30 10:45:00;;;;;;;19.65;10.73;;;7.40;99.90;;;;;;5050983;28;20082;-64
2021/10/30 10:47:35;;;;;;;22.13;14.75;;;7.50;99.90;;;;;;5051742;28;20051;-65
2021/10/30 10:50:31;;;;;;;20.73;13.80;;;7.50;99.90;;;;;;5051810;28;20024;-65
2021/10/30 10:53:00;;;;;;;18.90;12.55;;;7.60;99.90;;;;;;5029337;28;20036;-65
2021/10/30 10:55:27;;;;;;;16.50;12.20;;;7.60;99.90;;;;;;5030567;28;20026;-65
2021/10/30 10:57:59;;;;;;;17.15;11.30;;;7.60;99.90;;;;;;5031509;28;20041;-66
2021/10/30 11:00:25;;;;;;;15.35;10.82;;;7.70;99.90;;;;;;5031338;28;20033;-65
2021/10/30 11:02:50;;;;;;;14.82;10.88;;;7.70;99.90;;;;;;5031463;28;20025;-65
2021/10/30 11:05:20;;;;;;;14.25;9.90;;;7.80;99.90;;;;;;5030729;28;20043;-65
2021/10/30 11:07:49;;;;;;;16.27;10.95;;;7.90;99.90;;;;;;5031711;28;20021;-66
2021/10/30 11:10:26;;;;;;;15.20;10.60;;;7.90;99.90;;;;;;5031227;28;20025;-63
2021/10/30 11:15:41;;;;;;;15.98;10.20;;;7.90;99.90;;;;;;5030638;28;20029;-64
2021/10/30 11:18:12;;;;;;;23.15;12.48;;;8.00;99.90;;;;;;5031511;28;20026;-71
2021/10/30 11:20:39;;;;;;;18.23;11.55;;;8.10;99.90;;;;;;5033871;28;20116;-71
2021/10/30 11:23:12;;;;;;;26.35;12.20;;;8.30;99.90;;;;;;5071439;28;20066;-71
2021/10/30 11:25:38;;;;;;;27.75;14.02;;;8.30;99.90;;;;;;5058293;28;20029;-71
2021/10/30 11:28:04;;;;;;;25.33;12.95;;;8.20;99.90;;;;;;5054949;28;20394;-71
2021/10/30 11:30:43;;;;;;;19.13;12.57;;;8.20;99.90;;;;;;5055292;28;20017;-71
2021/10/30 11:33:29;;;;;;;15.13;11.02;;;8.10;99.90;;;;;;5055470;28;20057;-71
2021/10/30 11:36:05;;;;;;;15.75;11.65;;;8.10;99.90;;;;;;5054898;28;20074;-71
2021/10/30 11:38:58;;;;;;;19.80;12.70;;;8.10;99.90;;;;;;5055359;28;20108;-72
2021/10/30 11:41:26;;;;;;;17.55;11.73;;;8.10;99.90;;;;;;5053408;28;20044;-69
2021/10/30 11:43:59;;;;;;;18.60;13.38;;;8.20;99.90;;;;;;5055193;28;20025;-69
2021/10/30 11:46:25;;;;;;;20.17;12.48;;;8.20;99.90;;;;;;5054257;28;20029;-69
2021/10/30 11:48:56;;;;;;;21.40;13.57;;;8.10;99.90;;;;;;5054992;28;20017;-69
2021/10/30 11:51:36;;;;;;;20.88;13.95;;;8.10;99.90;;;;;;5062446;28;20432;-69
2021/10/30 11:54:03;;;;;;;19.15;13.82;;;8.10;99.90;;;;;;5074730;28;20021;-69
2021/10/30 11:56:30;;;;;;;20.45;14.75;;;8.10;99.90;;;;;;5074390;28;20115;-71
2021/10/30 11:58:58;;;;;;;26.40;18.67;;;8.00;99.90;;;;;;5075013;28;20078;-71
2021/10/30 12:01:29;;;;;;;24.70;16.30;;;7.90;99.90;;;;;;5074503;28;20064;-70
2021/10/30 12:04:17;;;;;;;19.80;14.05;;;7.90;99.90;;;;;;5077250;28;20497;-73
2021/10/30 12:06:51;;;;;;;19.10;13.93;;;7.90;99.90;;;;;;5074520;28;20036;-72
2021/10/30 12:09:20;;;;;;;24.27;15.00;;;7.90;99.90;;;;;;5075243;28;20386;-73
2021/10/30 12:11:46;;;;;;;25.90;17.80;;;8.00;99.90;;;;;;5074584;28;20501;-74
2021/10/30 12:14:19;;;;;;;23.33;17.67;;;8.10;99.90;;;;;;5074724;28;20441;-74
2021/10/30 12:16:46;;;;;;;32.58;21.08;;;8.30;99.90;;;;;;5074578;28;20028;-75
2021/10/30 12:19:12;;;;;;;26.08;17.67;;;8.30;99.90;;;;;;5074944;28;20033;-74
2021/10/30 12:21:37;;;;;;;22.00;15.43;;;8.30;99.90;;;;;;5064478;28;20097;-74
2021/10/30 12:24:05;;;;;;;23.55;15.48;;;8.40;99.90;;;;;;5042643;28;20022;-75
2021/10/30 12:26:34;;;;;;;23.70;14.00;;;8.50;99.90;;;;;;5044280;28;20025;-75
2021/10/30 12:29:16;;;;;;;19.35;14.20;;;8.50;99.90;;;;;;5042766;28;20059;-75
2021/10/30 12:31:59;;;;;;;23.13;13.82;;;8.60;99.90;;;;;;5043010;28;20022;-75
2021/10/30 12:34:25;;;;;;;18.35;13.80;;;8.70;99.90;;;;;;5043407;28;20029;-75
2021/10/30 12:36:55;;;;;;;22.70;15.82;;;8.70;99.90;;;;;;5042123;28;20022;-74
2021/10/30 12:39:21;;;;;;;20.38;15.57;;;8.70;99.90;;;;;;5044862;28;20017;-79
2021/10/30 12:41:55;;;;;;;24.70;16.70;;;8.80;99.90;;;;;;5042460;28;20033;-79
2021/10/30 12:44:32;;;;;;;21.42;14.32;;;8.70;99.90;;;;;;5024851;28;20455;-76